This is the latest recevied weather packets stored in our database for station/object K4JOZ. If no packets are shown the sender has not sent any weather packets the latest 1 day(s).
| Time | Temp. | Humidity | Pressure | Rain* | Wind** | Luminosity | Snow |
|---|---|---|---|---|---|---|---|
| 1778082769 | 17.22° C | 12% | 1010.1 hPa | 1.02 mm | - | - | - |
| 1778078269 | 18.33° C | 20% | 1010.1 hPa | 0.25 mm | - | - | - |
| 1778075569 | 17.22° C | 1% | 1008.9 hPa | 0.51 mm | - | - | - |
| 1778070169 | 15° C | 1% | 1008.9 hPa | 0 mm | - | - | - |
| 1778068407 | 15° C | 1% | 1008.7 hPa | 0.25 mm | - | - | - |
| 1778068369 | 15° C | 1% | 1008.7 hPa | 0.25 mm | - | - | - |
| 1778066569 | 14.44° C | 1% | 1008.2 hPa | 0.25 mm | - | - | - |
| 1778065669 | 14.44° C | 1% | 1007.9 hPa | 0 mm | - | - | - |
| 1778061169 | 14.44° C | 2% | 1007.5 hPa | 0 mm | - | - | - |
| 1778060269 | 14.44° C | 3% | 1007.2 hPa | 0 mm | - | - | - |
| 1778058469 | 14.44° C | 7% | 1007 hPa | 0 mm | - | - | - |
| 1778057569 | 14.44° C | 6% | 1007.1 hPa | 0 mm | - | - | - |
| 1778056669 | 14.44° C | 6% | 1007 hPa | 0 mm | - | - | - |
| 1778055769 | 14.44° C | 6% | 1007.2 hPa | 0 mm | - | - | - |
| 1778054869 | 14.44° C | 7% | 1007.4 hPa | 0 mm | - | - | - |
| 1778053969 | 14.44° C | 7% | 1007.6 hPa | 0 mm | - | - | - |
| 1778053070 | 14.44° C | 7% | 1007.6 hPa | 0 mm | - | - | - |
| 1778052169 | 14.44° C | 9% | 1007.4 hPa | 0.25 mm | - | - | - |
| 1778051270 | 14.44° C | 12% | 1007.8 hPa | 0.25 mm | - | - | - |
| 1778050369 | 14.44° C | 14% | 1008 hPa | 0.25 mm | - | - | - |
| 1778049469 | 15° C | 19% | 1008.3 hPa | 0.25 mm | - | - | - |
| 1778048569 | 15° C | 22% | 1008.6 hPa | 0 mm | - | - | - |
| 1778047669 | 14.44° C | 21% | 1008.5 hPa | 0 mm | - | - | - |
| 1778046769 | 14.44° C | 18% | 1008.8 hPa | 0 mm | - | - | - |
| 1778044969 | 14.44° C | 19% | 1008.6 hPa | 0 mm | - | - | - |
* Rain latest hour (hover to see other rain measurements)
** Current wind speed in m/s (hover to see current wind gust speed)